Time;durP1;ratioP1;P1;durP2;ratioP2;P2;SDS_P1;SDS_P2;PMS_P1;PMS_P2;Temp;Humidity;BMP_temperature;BMP_pressure;BME280_temperature;BME280_humidity;BME280_pressure;Samples;Min_cycle;Max_cycle;Signal;HPM_P1;HPM_P2
2023/03/13 00:01:23;;;;;;;;;;;;;;;3.56;47.31;94849.91;4229265;28;20381;-53
2023/03/13 00:03:25;;;;;;;;;;;;;;;3.56;47.66;94855.91;4229742;28;19920;-53
2023/03/13 00:05:27;;;;;;;;;;;;;;;3.48;47.82;94866.00;4210285;28;19927;-51
2023/03/13 00:07:28;;;;;;;;;;;;;;;3.42;47.47;94858.69;4223055;28;19920;-57
2023/03/13 00:09:30;;;;;;;;;;;;;;;3.37;47.69;94855.59;4212985;28;19927;-60
2023/03/13 00:11:32;;;;;;;;;;;;;;;3.42;47.88;94850.91;4225196;28;20004;-61
2023/03/13 00:13:34;;;;;;;;;;;;;;;3.45;48.11;94861.88;4227843;28;19920;-59
2023/03/13 00:15:35;;;;;;;;;;;;;;;3.37;47.46;94860.78;4227476;28;19930;-60
2023/03/13 00:17:37;;;;;;;;;;;;;;;3.30;47.77;94857.00;4228167;28;19919;-56
2023/03/13 00:19:38;;;;;;;;;;;;;;;3.31;48.25;94869.81;4225994;28;19972;-59
2023/03/13 00:21:40;;;;;;;;;;;;;;;3.28;48.32;94870.88;4223829;28;19967;-60
2023/03/13 00:23:41;;;;;;;;;;;;;;;3.23;48.23;94869.56;4207357;28;19943;-59
2023/03/13 00:25:43;;;;;;;;;;;;;;;3.25;48.26;94870.28;4200548;28;19995;-58
2023/03/13 00:27:45;;;;;;;;;;;;;;;3.17;48.40;94867.41;4204097;28;19919;-60
2023/03/13 00:29:46;;;;;;;;;;;;;;;3.19;48.49;94868.94;4199777;28;19920;-51
2023/03/13 00:31:48;;;;;;;;;;;;;;;3.19;48.40;94873.31;4197841;28;19977;-52
2023/03/13 00:33:52;;;;;;;;;;;;;;;3.03;48.74;94878.72;4213040;28;19973;-55
2023/03/13 00:35:57;;;;;;;;;;;;;;;2.92;48.92;94873.50;4202773;28;19920;-54
2023/03/13 00:37:59;;;;;;;;;;;;;;;2.97;48.96;94868.81;4208618;28;20422;-52
2023/03/13 00:40:00;;;;;;;;;;;;;;;3.08;48.99;94874.06;4210068;28;19969;-56
2023/03/13 00:42:02;;;;;;;;;;;;;;;3.07;48.46;94872.41;4204905;28;19921;-54
2023/03/13 00:44:04;;;;;;;;;;;;;;;3.07;49.08;94873.22;4200470;28;19920;-52
2023/03/13 00:46:06;;;;;;;;;;;;;;;3.01;48.62;94873.69;4199656;28;19970;-54
2023/03/13 00:48:07;;;;;;;;;;;;;;;3.02;48.87;94871.91;4200096;28;19920;-51
2023/03/13 00:50:09;;;;;;;;;;;;;;;2.98;48.68;94873.88;4202985;28;20030;-53
2023/03/13 00:52:11;;;;;;;;;;;;;;;3.06;48.38;94873.34;4200354;28;19969;-54
2023/03/13 00:54:12;;;;;;;;;;;;;;;3.08;48.80;94866.31;4199036;28;19920;-52
2023/03/13 00:56:14;;;;;;;;;;;;;;;3.10;48.62;94869.63;4204928;28;19920;-53
2023/03/13 00:58:16;;;;;;;;;;;;;;;3.07;48.77;94869.81;4211499;28;19951;-55
2023/03/13 01:00:18;;;;;;;;;;;;;;;3.10;48.62;94869.63;4223407;28;19920;-54
2023/03/13 01:02:19;;;;;;;;;;;;;;;3.15;48.78;94870.09;4213779;28;20443;-53
2023/03/13 01:04:21;;;;;;;;;;;;;;;3.18;48.72;94864.69;4227025;28;19928;-52
2023/03/13 01:06:24;;;;;;;;;;;;;;;3.15;48.81;94871.88;4224750;28;19931;-51
2023/03/13 01:08:26;;;;;;;;;;;;;;;3.15;48.70;94871.88;4230483;28;19993;-52
2023/03/13 01:10:28;;;;;;;;;;;;;;;3.18;48.95;94874.22;4220112;28;19920;-56
2023/03/13 01:12:29;;;;;;;;;;;;;;;3.22;48.67;94870.47;4232092;27;19941;-55
2023/03/13 01:14:31;;;;;;;;;;;;;;;3.27;48.39;94863.22;4231945;28;19920;-57
2023/03/13 01:16:33;;;;;;;;;;;;;;;3.33;48.56;94865.34;4230595;28;19927;-54
2023/03/13 01:18:35;;;;;;;;;;;;;;;3.31;48.54;94862.03;4220915;28;20374;-55
2023/03/13 01:20:37;;;;;;;;;;;;;;;3.27;48.09;94866.63;4197039;28;20023;-51
2023/03/13 01:22:38;;;;;;;;;;;;;;;3.29;48.46;94861.31;4214466;28;19924;-52
2023/03/13 01:24:40;;;;;;;;;;;;;;;3.26;48.47;94870.16;4231822;28;20028;-52
2023/03/13 01:26:42;;;;;;;;;;;;;;;3.15;48.32;94867.50;4223105;28;19928;-51
2023/03/13 01:28:43;;;;;;;;;;;;;;;3.12;48.67;94869.47;4227019;28;19945;-56
2023/03/13 01:30:45;;;;;;;;;;;;;;;2.80;49.69;94876.00;4230040;27;19920;-53
2023/03/13 01:32:46;;;;;;;;;;;;;;;2.77;50.13;94873.63;4226098;28;19920;-54
2023/03/13 01:34:48;;;;;;;;;;;;;;;2.80;49.29;94877.78;4222818;28;20315;-56
2023/03/13 01:36:51;;;;;;;;;;;;;;;2.86;49.60;94882.50;4230714;28;19920;-56
2023/03/13 01:38:53;;;;;;;;;;;;;;;2.82;49.05;94879.31;4230736;28;20645;-55
2023/03/13 01:40:55;;;;;;;;;;;;;;;2.88;49.52;94878.06;4225059;27;19920;-50
2023/03/13 01:42:57;;;;;;;;;;;;;;;2.87;49.43;94881.59;4205400;28;19927;-54
2023/03/13 01:44:59;;;;;;;;;;;;;;;2.90;49.52;94883.13;4209943;28;19920;-54
2023/03/13 01:47:00;;;;;;;;;;;;;;;2.92;49.74;94889.03;4198234;28;19943;-51
2023/03/13 01:49:16;;;;;;;;;;;;;;;2.91;50.01;94877.03;4215701;28;20328;-56
2023/03/13 01:51:22;;;;;;;;;;;;;;;2.94;50.08;94887.97;4212601;28;19927;-50
2023/03/13 01:53:24;;;;;;;;;;;;;;;3.00;50.06;94884.97;4209782;28;19960;-53
2023/03/13 01:55:25;;;;;;;;;;;;;;;3.04;50.07;94877.81;4214500;28;19920;-53
2023/03/13 01:57:28;;;;;;;;;;;;;;;3.05;49.89;94885.47;4215679;28;19924;-55
2023/03/13 01:59:31;;;;;;;;;;;;;;;3.07;50.24;94883.56;4213331;28;19965;-52
2023/03/13 02:01:33;;;;;;;;;;;;;;;3.10;49.58;94885.16;4205043;28;19919;-55
2023/03/13 02:03:34;;;;;;;;;;;;;;;3.13;49.82;94886.69;4229909;28;20339;-51
2023/03/13 02:05:36;;;;;;;;;;;;;;;3.13;49.79;94886.69;4220967;28;20017;-50
2023/03/13 02:07:39;;;;;;;;;;;;;;;3.12;49.20;94882.44;4223241;28;19927;-51
2023/03/13 02:09:41;;;;;;;;;;;;;;;3.12;49.11;94883.28;4212713;28;20018;-53
2023/03/13 02:11:56;;;;;;;;;;;;;;;3.12;50.01;94877.25;4231088;28;19985;-53
2023/03/13 02:13:58;;;;;;;;;;;;;;;3.11;50.18;94881.59;4220998;28;20390;-53
2023/03/13 02:15:59;;;;;;;;;;;;;;;3.01;50.49;94889.22;4199966;28;19921;-54
2023/03/13 02:18:01;;;;;;;;;;;;;;;3.01;50.60;94896.97;4182015;28;19928;-51
2023/03/13 02:20:03;;;;;;;;;;;;;;;2.84;50.22;94900.75;4220314;28;19972;-53
2023/03/13 02:22:05;;;;;;;;;;;;;;;2.83;50.50;94898.25;4223607;28;20361;-56
2023/03/13 02:24:06;;;;;;;;;;;;;;;2.77;50.77;94903.84;4221883;28;19920;-55
2023/03/13 02:26:08;;;;;;;;;;;;;;;2.50;51.15;94904.03;4230246;28;20293;-54
2023/03/13 02:28:45;;;;;;;;;;;;;;;2.43;51.86;94907.00;4224425;28;19931;-57
2023/03/13 02:30:47;;;;;;;;;;;;;;;2.53;51.23;94907.19;4151364;28;20377;-57
2023/03/13 02:32:48;;;;;;;;;;;;;;;2.62;50.84;94916.09;4189626;28;19927;-53
2023/03/13 02:34:50;;;;;;;;;;;;;;;2.70;50.40;94918.97;4221049;28;19924;-53
2023/03/13 02:36:52;;;;;;;;;;;;;;;2.78;50.91;94921.03;4226170;28;19920;-54
2023/03/13 02:38:58;;;;;;;;;;;;;;;2.79;50.80;94923.50;4229541;28;19932;-53
2023/03/13 02:41:00;;;;;;;;;;;;;;;2.77;51.26;94932.31;4229310;28;20397;-52
2023/03/13 02:43:04;;;;;;;;;;;;;;;2.75;51.32;94931.59;4219012;28;19928;-59
2023/03/13 02:45:06;;;;;;;;;;;;;;;2.64;51.57;94940.09;4217046;28;19927;-61
2023/03/13 02:47:08;;;;;;;;;;;;;;;2.69;51.30;94947.53;4230575;28;19973;-54
2023/03/13 02:49:16;;;;;;;;;;;;;;;2.71;51.42;94951.69;4229893;28;19924;-58
2023/03/13 02:51:17;;;;;;;;;;;;;;;2.64;51.43;94940.09;4215503;28;20371;-53
2023/03/13 02:53:19;;;;;;;;;;;;;;;2.60;51.54;94943.81;4220983;28;20003;-57
2023/03/13 02:55:24;;;;;;;;;;;;;;;2.62;51.81;94950.56;4224903;28;20022;-57
2023/03/13 02:57:25;;;;;;;;;;;;;;;2.69;51.83;94948.38;4212643;28;19920;-59
2023/03/13 02:59:27;;;;;;;;;;;;;;;2.68;51.96;94944.13;4214859;28;19973;-58
2023/03/13 03:01:28;;;;;;;;;;;;;;;2.69;51.86;94953.56;4214176;28;20319;-56
2023/03/13 03:03:30;;;;;;;;;;;;;;;2.61;52.30;94945.47;4218120;28;19926;-58
2023/03/13 03:05:31;;;;;;;;;;;;;;;2.45;52.06;94953.44;4228867;28;20343;-55
2023/03/13 03:07:33;;;;;;;;;;;;;;;2.24;52.78;94951.38;4217725;28;19923;-58
2023/03/13 03:09:34;;;;;;;;;;;;;;;2.22;53.03;94948.06;4223846;28;19920;-58
2023/03/13 03:11:37;;;;;;;;;;;;;;;2.27;53.20;94946.94;4223116;28;19920;-59
2023/03/13 03:13:40;;;;;;;;;;;;;;;2.30;52.73;94947.53;4229444;28;19964;-59
2023/03/13 03:15:41;;;;;;;;;;;;;;;2.27;52.69;94958.09;4205708;28;20021;-56
2023/03/13 03:17:43;;;;;;;;;;;;;;;1.73;53.40;94966.78;4203955;28;19923;-57
2023/03/13 03:19:44;;;;;;;;;;;;;;;1.37;54.65;94972.53;4210552;28;19924;-60
2023/03/13 03:21:48;;;;;;;;;;;;;;;1.14;55.41;94985.13;4199637;28;20006;-57
2023/03/13 03:23:50;;;;;;;;;;;;;;;0.89;55.52;94983.22;4196665;28;19981;-60
2023/03/13 03:25:51;;;;;;;;;;;;;;;0.77;56.62;94996.84;4196963;28;19920;-57
2023/03/13 03:27:53;;;;;;;;;;;;;;;0.78;56.71;94998.53;4207973;28;19928;-57
2023/03/13 03:29:54;;;;;;;;;;;;;;;0.57;57.31;95003.22;4226192;28;20006;-56
2023/03/13 03:31:56;;;;;;;;;;;;;;;0.66;58.16;94997.50;4222794;28;19960;-56
2023/03/13 03:33:57;;;;;;;;;;;;;;;0.81;57.80;94990.59;4220547;28;19920;-58
2023/03/13 03:36:00;;;;;;;;;;;;;;;1.08;56.58;94987.25;4224021;28;19927;-58
2023/03/13 03:38:01;;;;;;;;;;;;;;;1.27;56.11;94990.38;4227052;28;19924;-55
2023/03/13 03:40:05;;;;;;;;;;;;;;;1.48;55.54;94995.09;4222344;28;20298;-59
2023/03/13 03:42:08;;;;;;;;;;;;;;;1.70;55.28;95004.88;4222258;28;19919;-56
2023/03/13 03:44:09;;;;;;;;;;;;;;;1.78;54.88;95008.63;4223141;28;19934;-55
2023/03/13 03:46:11;;;;;;;;;;;;;;;1.88;54.64;95015.81;4213450;28;19970;-59
2023/03/13 03:48:13;;;;;;;;;;;;;;;1.80;54.97;95024.03;4229308;28;20387;-57
2023/03/13 03:50:14;;;;;;;;;;;;;;;1.20;56.41;95027.78;4226256;28;19926;-54
2023/03/13 03:52:16;;;;;;;;;;;;;;;1.01;56.98;95031.50;4215683;28;19928;-57
2023/03/13 03:54:18;;;;;;;;;;;;;;;0.61;58.19;95030.47;4214520;28;19920;-56
2023/03/13 03:56:20;;;;;;;;;;;;;;;0.58;59.22;95025.47;4224072;28;19919;-58
2023/03/13 03:58:21;;;;;;;;;;;;;;;0.72;58.77;95029.84;4217655;28;20333;-54
2023/03/13 04:00:23;;;;;;;;;;;;;;;0.89;58.64;95032.22;4221292;28;19973;-57
2023/03/13 04:02:24;;;;;;;;;;;;;;;1.05;58.55;95041.63;4227782;28;19921;-58
2023/03/13 04:04:26;;;;;;;;;;;;;;;1.05;58.67;95034.69;4225942;28;20002;-58
2023/03/13 04:06:27;;;;;;;;;;;;;;;1.02;58.39;95038.31;4226754;28;19969;-58
2023/03/13 04:08:29;;;;;;;;;;;;;;;0.89;59.38;95041.72;4226232;28;19919;-56
2023/03/13 04:10:30;;;;;;;;;;;;;;;0.98;58.71;95048.91;4216476;28;19928;-56
2023/03/13 04:12:32;;;;;;;;;;;;;;;1.00;59.10;95052.22;4221130;28;19921;-59
2023/03/13 04:14:33;;;;;;;;;;;;;;;1.08;58.85;95049.19;4222704;28;19931;-57
2023/03/13 04:16:35;;;;;;;;;;;;;;;1.06;58.36;95051.84;4222077;28;19974;-60
2023/03/13 04:18:36;;;;;;;;;;;;;;;1.16;58.02;95058.13;4219022;28;19935;-53
2023/03/13 04:20:38;;;;;;;;;;;;;;;1.27;57.91;95064.34;4195523;28;19927;-58
2023/03/13 04:22:41;;;;;;;;;;;;;;;1.31;57.79;95060.66;4225781;28;19955;-57
2023/03/13 04:24:42;;;;;;;;;;;;;;;1.28;57.89;95063.44;4221147;28;19954;-57
2023/03/13 04:26:43;;;;;;;;;;;;;;;1.32;57.95;95063.16;4215754;28;19928;-58
2023/03/13 04:28:45;;;;;;;;;;;;;;;1.44;58.27;95071.91;4227309;28;19919;-58
2023/03/13 04:30:46;;;;;;;;;;;;;;;1.54;57.45;95070.41;4228438;28;19965;-52
2023/03/13 04:32:49;;;;;;;;;;;;;;;1.64;57.05;95070.69;4229296;28;19920;-56
2023/03/13 04:34:51;;;;;;;;;;;;;;;1.73;56.85;95077.03;4227290;28;20332;-58
2023/03/13 04:36:54;;;;;;;;;;;;;;;1.83;56.13;95080.69;4216600;28;20068;-54
2023/03/13 04:38:56;;;;;;;;;;;;;;;1.88;55.96;95090.72;4204190;28;19927;-60
2023/03/13 04:40:57;;;;;;;;;;;;;;;1.79;55.98;95092.13;4223556;28;19924;-57
2023/03/13 04:42:59;;;;;;;;;;;;;;;1.82;56.22;95097.09;4225951;28;19978;-58
2023/03/13 04:45:00;;;;;;;;;;;;;;;1.90;56.35;95097.47;4209574;28;20040;-57
2023/03/13 04:47:02;;;;;;;;;;;;;;;1.95;56.16;95097.97;4231721;28;19919;-58
2023/03/13 04:49:03;;;;;;;;;;;;;;;1.99;55.93;95106.38;4230368;28;20596;-55
2023/03/13 04:51:08;;;;;;;;;;;;;;;2.04;55.71;95107.75;4224926;28;19926;-59
2023/03/13 04:53:09;;;;;;;;;;;;;;;2.03;56.11;95106.09;4229554;28;19959;-57
2023/03/13 04:55:11;;;;;;;;;;;;;;;2.04;55.55;95107.75;4229527;28;19920;-58
2023/03/13 04:57:12;;;;;;;;;;;;;;;2.13;55.67;95108.06;4219061;28;20105;-57
2023/03/13 04:59:14;;;;;;;;;;;;;;;2.17;55.33;95101.78;4218609;28;19924;-55
2023/03/13 05:01:15;;;;;;;;;;;;;;;2.17;55.83;95104.38;4202077;28;20309;-56
2023/03/13 05:03:17;;;;;;;;;;;;;;;2.16;55.21;95106.13;4221706;28;19928;-57
2023/03/13 05:05:18;;;;;;;;;;;;;;;2.20;55.14;95106.78;4229720;28;19920;-55
2023/03/13 05:07:20;;;;;;;;;;;;;;;2.22;55.16;95100.56;4224219;28;19932;-54
2023/03/13 05:09:22;;;;;;;;;;;;;;;2.28;55.10;95094.19;4216008;28;19928;-59
2023/03/13 05:11:23;;;;;;;;;;;;;;;2.30;55.23;95100.06;4206542;28;20168;-58
2023/03/13 05:13:25;;;;;;;;;;;;;;;2.32;55.22;95105.16;4200120;28;19998;-58
2023/03/13 05:15:26;;;;;;;;;;;;;;;2.37;55.25;95109.09;4218091;28;20373;-61
2023/03/13 05:17:28;;;;;;;;;;;;;;;1.98;55.50;95117.63;4211303;28;19961;-54
2023/03/13 05:19:29;;;;;;;;;;;;;;;1.83;56.43;95119.44;4202532;28;20007;-55
2023/03/13 05:21:31;;;;;;;;;;;;;;;1.64;56.56;95123.16;4199802;28;20374;-50
2023/03/13 05:23:32;;;;;;;;;;;;;;;0.90;58.12;95136.22;4200196;28;19967;-53
2023/03/13 05:25:34;;;;;;;;;;;;;;;0.30;61.22;95139.66;4209521;28;19939;-55
2023/03/13 05:27:35;;;;;;;;;;;;;;;0.42;60.86;95138.97;4219981;28;19919;-54
2023/03/13 05:29:37;;;;;;;;;;;;;;;0.53;61.28;95135.78;4188866;28;19952;-53
2023/03/13 05:32:03;;;;;;;;;;;;;;;0.63;61.14;95146.41;4216526;28;20018;-53
2023/03/13 05:34:05;;;;;;;;;;;;;;;0.89;60.72;95142.31;4211052;28;19920;-52
2023/03/13 05:36:06;;;;;;;;;;;;;;;1.10;59.84;95145.38;4209162;28;20013;-52
2023/03/13 05:38:08;;;;;;;;;;;;;;;1.33;59.17;95139.66;4221527;28;19923;-53
2023/03/13 05:40:10;;;;;;;;;;;;;;;1.58;58.41;95144.19;4211185;28;20304;-56
2023/03/13 05:42:11;;;;;;;;;;;;;;;1.80;58.09;95145.44;4219168;28;19920;-53
2023/03/13 05:44:13;;;;;;;;;;;;;;;1.96;57.29;95141.00;4217916;28;20446;-55
2023/03/13 05:46:14;;;;;;;;;;;;;;;2.08;57.07;95141.16;4220226;28;20039;-55
2023/03/13 05:48:16;;;;;;;;;;;;;;;2.18;56.73;95135.28;4218288;28;19927;-55
2023/03/13 05:50:17;;;;;;;;;;;;;;;2.38;56.03;95140.94;4207573;28;19921;-55
2023/03/13 05:52:19;;;;;;;;;;;;;;;2.58;55.83;95147.41;4196536;28;19924;-54
2023/03/13 05:54:20;;;;;;;;;;;;;;;2.71;55.23;95143.13;4207797;28;19920;-55
2023/03/13 05:56:22;;;;;;;;;;;;;;;2.71;54.73;95150.88;4207043;28;19920;-56
2023/03/13 05:58:23;;;;;;;;;;;;;;;2.81;54.39;95153.69;4213250;28;19949;-55
2023/03/13 06:00:25;;;;;;;;;;;;;;;2.92;54.05;95150.38;4208032;28;19920;-53
2023/03/13 06:02:26;;;;;;;;;;;;;;;3.06;53.74;95164.06;4214960;28;19920;-53
2023/03/13 06:04:28;;;;;;;;;;;;;;;3.16;53.67;95160.88;4202167;28;19920;-55
2023/03/13 06:06:30;;;;;;;;;;;;;;;3.30;53.53;95154.78;4217538;28;19920;-57
2023/03/13 06:08:31;;;;;;;;;;;;;;;3.30;53.02;95155.59;4205020;28;20031;-57
2023/03/13 06:10:33;;;;;;;;;;;;;;;3.30;52.49;95158.19;4228474;28;19919;-59
2023/03/13 06:12:34;;;;;;;;;;;;;;;3.35;52.12;95158.69;4231736;28;20273;-57
2023/03/13 06:14:39;;;;;;;;;;;;;;;3.44;52.46;95162.41;4211441;28;19924;-55
2023/03/13 06:16:41;;;;;;;;;;;;;;;3.52;51.74;95149.78;4226294;28;20598;-55
2023/03/13 06:18:42;;;;;;;;;;;;;;;3.65;50.61;95155.78;4215808;28;19920;-52
2023/03/13 06:20:44;;;;;;;;;;;;;;;3.68;49.98;95165.13;4202352;28;20166;-56
2023/03/13 06:22:45;;;;;;;;;;;;;;;3.73;49.54;95164.78;4197163;28;19921;-55
2023/03/13 06:24:48;;;;;;;;;;;;;;;3.77;49.09;95150.69;4186278;28;20403;-57
2023/03/13 06:26:50;;;;;;;;;;;;;;;3.31;49.69;95159.81;4207758;28;19927;-58
2023/03/13 06:28:51;;;;;;;;;;;;;;;2.91;50.27;95166.84;4219205;28;20541;-54
2023/03/13 06:30:54;;;;;;;;;;;;;;;2.78;50.70;95170.25;4230713;28;19926;-56
2023/03/13 06:32:56;;;;;;;;;;;;;;;2.81;51.27;95164.03;4230913;28;19920;-57
2023/03/13 06:34:58;;;;;;;;;;;;;;;3.04;50.40;95153.00;4228781;28;20412;-58
2023/03/13 06:36:59;;;;;;;;;;;;;;;3.29;49.95;95143.56;4231010;28;19924;-56
2023/03/13 06:39:02;;;;;;;;;;;;;;;3.48;49.22;95145.75;4221320;28;20349;-57
2023/03/13 06:41:03;;;;;;;;;;;;;;;3.53;48.68;95138.50;4213895;28;20429;-54
2023/03/13 06:43:05;;;;;;;;;;;;;;;3.68;48.90;95147.81;4229930;28;19953;-58
2023/03/13 06:45:06;;;;;;;;;;;;;;;3.74;47.76;95143.13;4216185;28;19931;-57
2023/03/13 06:47:08;;;;;;;;;;;;;;;3.76;47.97;95149.03;4230596;28;19920;-56
2023/03/13 06:49:10;;;;;;;;;;;;;;;3.41;48.22;95150.50;4230440;28;19949;-54
2023/03/13 06:51:12;;;;;;;;;;;;;;;3.42;48.92;95151.34;4183917;28;19928;-55
2023/03/13 06:53:15;;;;;;;;;;;;;;;2.70;49.55;95159.56;4197108;28;19921;-57
2023/03/13 06:55:17;;;;;;;;;;;;;;;2.33;50.71;95159.34;4211319;28;19989;-55
2023/03/13 06:57:19;;;;;;;;;;;;;;;2.31;51.58;95155.22;4202556;28;19955;-60
2023/03/13 06:59:20;;;;;;;;;;;;;;;2.40;51.19;95150.25;4199115;28;19921;-58
2023/03/13 07:01:22;;;;;;;;;;;;;;;2.70;51.14;95150.97;4200820;28;19920;-56
2023/03/13 07:03:23;;;;;;;;;;;;;;;3.06;50.32;95147.72;4205910;28;19967;-56
2023/03/13 07:05:25;;;;;;;;;;;;;;;3.08;50.29;95151.03;4194997;28;19931;-58
2023/03/13 07:07:29;;;;;;;;;;;;;;;2.54;50.63;95144.22;4198318;28;19921;-60
2023/03/13 07:09:32;;;;;;;;;;;;;;;2.56;51.40;95151.84;4213388;28;20293;-59
2023/03/13 07:11:34;;;;;;;;;;;;;;;2.82;50.77;95151.00;4222676;28;19968;-58
2023/03/13 07:13:35;;;;;;;;;;;;;;;3.18;50.00;95154.66;4230220;28;19971;-57
2023/03/13 07:15:37;;;;;;;;;;;;;;;3.45;49.46;95153.72;4197866;28;19929;-60
2023/03/13 07:17:38;;;;;;;;;;;;;;;3.03;49.66;95147.91;4206487;28;19928;-60
2023/03/13 07:19:40;;;;;;;;;;;;;;;2.80;49.92;95145.09;4223170;28;20337;-55
2023/03/13 07:21:42;;;;;;;;;;;;;;;3.08;49.88;95140.69;4212947;28;20018;-56
2023/03/13 07:23:44;;;;;;;;;;;;;;;3.42;49.22;95144.41;4213301;28;19934;-57
2023/03/13 07:25:56;;;;;;;;;;;;;;;3.74;48.45;95137.94;4196728;28;20448;-61
2023/03/13 07:27:59;;;;;;;;;;;;;;;3.92;47.44;95134.06;4208573;28;19924;-60
2023/03/13 07:30:01;;;;;;;;;;;;;;;4.07;47.15;95135.56;4197101;28;19920;-57
2023/03/13 07:32:03;;;;;;;;;;;;;;;4.24;47.23;95125.78;4201636;28;19928;-59
2023/03/13 07:34:04;;;;;;;;;;;;;;;4.46;46.91;95130.25;4204277;28;19921;-58
2023/03/13 07:36:08;;;;;;;;;;;;;;;4.61;46.43;95133.50;4219919;28;20232;-56
2023/03/13 07:38:10;;;;;;;;;;;;;;;4.81;47.21;95138.03;4212460;28;19960;-59
2023/03/13 07:40:12;;;;;;;;;;;;;;;5.03;46.30;95144.22;4218964;28;19920;-58
2023/03/13 07:42:13;;;;;;;;;;;;;;;4.93;46.34;95138.91;4211154;28;20359;-57
2023/03/13 07:44:15;;;;;;;;;;;;;;;4.65;46.43;95142.72;4207578;28;19928;-59
2023/03/13 07:46:20;;;;;;;;;;;;;;;4.50;47.26;95142.06;4199986;28;19924;-58
2023/03/13 07:48:22;;;;;;;;;;;;;;;4.52;47.88;95140.19;4207096;28;20361;-58
2023/03/13 07:50:24;;;;;;;;;;;;;;;4.45;47.51;95144.97;4206326;28;20298;-58
2023/03/13 07:52:26;;;;;;;;;;;;;;;4.28;47.46;95142.75;4201050;28;19924;-57
2023/03/13 07:54:28;;;;;;;;;;;;;;;4.42;46.98;95142.59;4202131;28;20338;-58
2023/03/13 07:56:29;;;;;;;;;;;;;;;4.67;46.69;95135.63;4207476;28;20374;-54
2023/03/13 07:58:32;;;;;;;;;;;;;;;4.88;46.27;95138.41;4211423;28;19970;-60
2023/03/13 08:00:34;;;;;;;;;;;;;;;5.16;46.28;95129.38;4195868;28;19920;-56
2023/03/13 08:02:35;;;;;;;;;;;;;;;5.13;45.88;95124.44;4197719;28;19920;-58
2023/03/13 08:04:37;;;;;;;;;;;;;;;5.11;46.42;95123.72;4213100;28;19920;-58
2023/03/13 08:06:39;;;;;;;;;;;;;;;5.18;46.57;95121.47;4220132;28;19920;-61
2023/03/13 08:08:41;;;;;;;;;;;;;;;5.37;46.51;95115.72;4229441;28;19986;-55
2023/03/13 08:10:43;;;;;;;;;;;;;;;5.57;45.90;95122.84;4197448;28;20298;-51
2023/03/13 08:15:31;;;;;;;;;;;;;;;5.02;45.71;95117.44;4225586;28;19973;-55
2023/03/13 08:17:33;;;;;;;;;;;;;;;5.03;45.74;95120.84;4199156;28;19927;-56
2023/03/13 08:19:34;;;;;;;;;;;;;;;4.80;46.47;95120.81;4206800;28;19920;-56
2023/03/13 08:21:36;;;;;;;;;;;;;;;4.72;47.28;95125.75;4194994;28;19920;-54
2023/03/13 08:23:37;;;;;;;;;;;;;;;4.17;48.43;95127.13;4196162;28;20026;-54
2023/03/13 08:25:39;;;;;;;;;;;;;;;4.01;48.61;95130.00;4196135;28;20301;-57
2023/03/13 08:27:43;;;;;;;;;;;;;;;4.13;48.93;95134.31;4202408;28;19921;-53
2023/03/13 08:29:44;;;;;;;;;;;;;;;4.21;48.42;95131.16;4204474;28;19920;-53
2023/03/13 08:31:47;;;;;;;;;;;;;;;4.34;48.33;95134.53;4199836;28;20639;-54
2023/03/13 08:33:48;;;;;;;;;;;;;;;4.66;48.05;95129.59;4179520;28;19929;-53
2023/03/13 08:35:50;;;;;;;;;;;;;;;5.04;47.04;95131.13;4177622;28;19921;-56
2023/03/13 08:37:51;;;;;;;;;;;;;;;4.99;46.10;95140.19;4189249;28;20011;-58
2023/03/13 08:39:55;;;;;;;;;;;;;;;4.99;47.06;95138.47;4195475;28;19925;-57
2023/03/13 08:41:56;;;;;;;;;;;;;;;5.39;46.43;95132.03;4179638;28;20420;-56
2023/03/13 08:43:58;;;;;;;;;;;;;;;5.78;46.03;95124.69;4179304;28;19920;-56
2023/03/13 08:46:00;;;;;;;;;;;;;;;5.70;44.96;95126.13;4178939;28;19921;-51
2023/03/13 08:48:01;;;;;;;;;;;;;;;5.80;45.34;95122.81;4179409;28;19987;-53
2023/03/13 08:50:03;;;;;;;;;;;;;;;6.09;44.85;95126.59;4177721;28;20367;-53
2023/03/13 08:52:05;;;;;;;;;;;;;;;6.21;44.35;95118.75;4179342;28;19920;-56
2023/03/13 08:54:06;;;;;;;;;;;;;;;6.30;44.33;95108.44;4190325;28;19924;-59
2023/03/13 08:56:09;;;;;;;;;;;;;;;6.56;43.69;95114.16;4193897;28;20014;-58
2023/03/13 08:58:10;;;;;;;;;;;;;;;6.70;43.00;95110.41;4203205;28;19924;-55
2023/03/13 09:00:12;;;;;;;;;;;;;;;6.92;43.10;95117.28;4195419;28;19924;-57
2023/03/13 09:02:18;;;;;;;;;;;;;;;7.14;42.61;95107.69;4183877;28;19920;-54
2023/03/13 09:04:20;;;;;;;;;;;;;;;7.26;42.50;95113.69;4192136;28;19970;-53
2023/03/13 09:06:22;;;;;;;;;;;;;;;7.07;42.83;95112.59;4183419;28;19932;-57
2023/03/13 09:08:23;;;;;;;;;;;;;;;7.29;43.02;95110.81;4195504;28;19921;-57
2023/03/13 09:10:25;;;;;;;;;;;;;;;7.53;42.20;95107.94;4177774;28;19921;-57
2023/03/13 09:12:26;;;;;;;;;;;;;;;7.07;41.91;95119.59;4195184;28;19975;-53
2023/03/13 09:14:31;;;;;;;;;;;;;;;6.26;43.65;95114.00;4195196;28;20027;-56
2023/03/13 09:16:36;;;;;;;;;;;;;;;6.46;43.88;95105.44;4195422;28;19932;-55
2023/03/13 09:18:38;;;;;;;;;;;;;;;6.27;44.12;95105.25;4195250;28;20271;-54
2023/03/13 09:20:42;;;;;;;;;;;;;;;6.22;44.48;95099.59;4179175;28;19929;-55
2023/03/13 09:22:43;;;;;;;;;;;;;;;6.49;44.20;95105.16;4189059;28;19971;-50
2023/03/13 09:24:45;;;;;;;;;;;;;;;6.80;43.57;95104.44;4196946;28;20271;-55
2023/03/13 09:26:46;;;;;;;;;;;;;;;7.17;43.09;95099.63;4193741;28;20405;-53
2023/03/13 09:29:01;;;;;;;;;;;;;;;7.54;42.53;95094.75;4191193;28;19921;-55
2023/03/13 09:31:22;;;;;;;;;;;;;;;7.28;42.38;95102.16;4194482;28;19947;-57
2023/03/13 09:33:24;;;;;;;;;;;;;;;7.42;42.92;95110.59;4198338;28;19928;-52
2023/03/13 09:35:25;;;;;;;;;;;;;;;7.16;42.49;95111.00;4197022;28;19959;-58
2023/03/13 09:37:27;;;;;;;;;;;;;;;7.10;43.34;95119.34;4219492;28;19927;-54
2023/03/13 09:39:28;;;;;;;;;;;;;;;7.20;43.02;95111.56;4231102;28;20353;-52
2023/03/13 09:41:36;;;;;;;;;;;;;;;7.38;42.85;95110.06;4231471;28;19966;-54
2023/03/13 09:44:07;;;;;;;;;;;;;;;7.52;42.50;95107.06;4231762;28;19920;-58
2023/03/13 09:46:22;;;;;;;;;;;;;;;7.87;42.77;95110.22;4164965;28;19972;-54
2023/03/13 09:48:28;;;;;;;;;;;;;;;7.85;41.38;95102.56;4205434;28;19927;-55
2023/03/13 09:50:34;;;;;;;;;;;;;;;8.20;42.06;95089.03;4182800;28;19921;-57
2023/03/13 09:52:39;;;;;;;;;;;;;;;8.37;40.58;95095.38;4209670;28;19964;-54
2023/03/13 09:54:42;;;;;;;;;;;;;;;8.67;40.32;95093.66;4220309;28;19920;-56
2023/03/13 09:56:45;;;;;;;;;;;;;;;8.79;40.01;95087.31;4207100;28;19920;-56
2023/03/13 09:58:54;;;;;;;;;;;;;;;8.95;39.46;95088.56;4224286;28;19973;-54
2023/03/13 10:01:02;;;;;;;;;;;;;;;8.84;39.23;95094.75;4199139;28;19920;-54
2023/03/13 10:03:03;;;;;;;;;;;;;;;8.75;39.58;95092.94;4221862;28;19928;-50
2023/03/13 10:05:25;;;;;;;;;;;;;;;8.94;39.36;95085.09;4197291;28;19920;-52
2023/03/13 10:07:26;;;;;;;;;;;;;;;9.00;39.20;95083.72;4213902;28;20387;-55
2023/03/13 10:09:31;;;;;;;;;;;;;;;8.79;39.04;95091.72;4210278;28;19982;-56
2023/03/13 10:11:37;;;;;;;;;;;;;;;8.34;40.64;95079.97;4189421;28;19983;-57
2023/03/13 10:13:42;;;;;;;;;;;;;;;8.37;41.54;95077.13;4202414;28;19964;-56
2023/03/13 10:15:56;;;;;;;;;;;;;;;8.33;41.53;95067.09;4201524;28;19924;-56
2023/03/13 10:17:58;;;;;;;;;;;;;;;8.07;40.55;95069.38;4199739;28;19926;-57
2023/03/13 10:20:07;;;;;;;;;;;;;;;7.88;42.08;95059.72;4208991;28;20185;-57
2023/03/13 10:22:18;;;;;;;;;;;;;;;8.24;41.13;95055.69;4208289;28;19952;-56
2023/03/13 10:24:26;;;;;;;;;;;;;;;8.73;40.73;95058.31;4228154;28;19924;-57
2023/03/13 10:26:28;;;;;;;;;;;;;;;9.12;40.31;95053.88;4225047;28;20373;-56
2023/03/13 10:28:30;;;;;;;;;;;;;;;8.98;40.18;95039.44;4211488;28;20336;-54
2023/03/13 10:30:34;;;;;;;;;;;;;;;8.91;40.06;95034.94;4209656;28;19942;-56
2023/03/13 10:32:35;;;;;;;;;;;;;;;8.94;39.68;95040.69;4210488;28;19920;-54
2023/03/13 10:34:50;;;;;;;;;;;;;;;8.97;39.77;95040.41;4192746;28;20018;-57
2023/03/13 10:36:58;;;;;;;;;;;;;;;9.36;39.40;95027.22;4197498;28;19920;-57
2023/03/13 10:39:00;;;;;;;;;;;;;;;9.36;38.70;95026.41;4197850;28;19925;-56
2023/03/13 10:41:06;;;;;;;;;;;;;;;9.55;39.22;95020.25;4211284;28;19973;-56
2023/03/13 10:43:18;;;;;;;;;;;;;;;9.86;39.33;95022.59;4197558;28;20070;-57
2023/03/13 10:45:22;;;;;;;;;;;;;;;9.95;38.27;95013.84;4197320;28;19924;-54
2023/03/13 10:47:26;;;;;;;;;;;;;;;10.09;38.07;95009.91;4179869;28;19927;-58
2023/03/13 10:49:27;;;;;;;;;;;;;;;10.13;38.10;95013.88;4210799;28;19924;-56
2023/03/13 10:51:32;;;;;;;;;;;;;;;10.08;37.89;95010.88;4202484;28;19981;-54